sensor_id;sensor_type;location;lat;lon;timestamp;pressure;altitude;pressure_sealevel;temperature;humidity
77118;BME280;66072;50.238;19.228;2024-03-08T00:02:05;99142.95;;;-3.59;100.00
77118;BME280;66072;50.238;19.228;2024-03-08T00:04:33;99143.59;;;-3.61;100.00
77118;BME280;66072;50.238;19.228;2024-03-08T00:07:00;99140.73;;;-3.61;100.00
77118;BME280;66072;50.238;19.228;2024-03-08T00:09:28;99140.71;;;-3.62;100.00
77118;BME280;66072;50.238;19.228;2024-03-08T00:11:56;99143.19;;;-3.63;100.00
77118;BME280;66072;50.238;19.228;2024-03-08T00:14:24;99141.83;;;-3.64;100.00
77118;BME280;66072;50.238;19.228;2024-03-08T00:16:51;99140.64;;;-3.65;100.00
77118;BME280;66072;50.238;19.228;2024-03-08T00:19:19;99140.63;;;-3.66;100.00
77118;BME280;66072;50.238;19.228;2024-03-08T00:21:47;99140.61;;;-3.67;100.00
77118;BME280;66072;50.238;19.228;2024-03-08T00:24:14;99139.30;;;-3.66;100.00
77118;BME280;66072;50.238;19.228;2024-03-08T00:26:42;99136.11;;;-3.66;100.00
77118;BME280;66072;50.238;19.228;2024-03-08T00:29:10;99139.64;;;-3.65;100.00
77118;BME280;66072;50.238;19.228;2024-03-08T00:31:38;99136.11;;;-3.66;100.00
77118;BME280;66072;50.238;19.228;2024-03-08T00:34:05;99137.23;;;-3.68;100.00
77118;BME280;66072;50.238;19.228;2024-03-08T00:36:33;99137.00;;;-3.71;100.00
77118;BME280;66072;50.238;19.228;2024-03-08T00:39:01;99132.91;;;-3.74;100.00
77118;BME280;66072;50.238;19.228;2024-03-08T00:41:29;99132.53;;;-3.77;100.00
77118;BME280;66072;50.238;19.228;2024-03-08T00:43:57;99129.17;;;-3.78;100.00
77118;BME280;66072;50.238;19.228;2024-03-08T00:46:24;99126.10;;;-3.81;100.00
77118;BME280;66072;50.238;19.228;2024-03-08T00:48:52;99126.41;;;-3.82;100.00
77118;BME280;66072;50.238;19.228;2024-03-08T00:51:20;99125.23;;;-3.83;100.00
77118;BME280;66072;50.238;19.228;2024-03-08T00:53:48;99127.55;;;-3.84;100.00
77118;BME280;66072;50.238;19.228;2024-03-08T00:56:15;99121.34;;;-3.86;100.00
77118;BME280;66072;50.238;19.228;2024-03-08T00:58:43;99116.77;;;-3.87;100.00
77118;BME280;66072;50.238;19.228;2024-03-08T01:01:13;99116.94;;;-3.87;100.00
77118;BME280;66072;50.238;19.228;2024-03-08T01:03:42;99116.23;;;-3.89;100.00
77118;BME280;66072;50.238;19.228;2024-03-08T01:06:10;99113.19;;;-3.91;100.00
77118;BME280;66072;50.238;19.228;2024-03-08T01:08:38;99109.82;;;-3.93;100.00
77118;BME280;66072;50.238;19.228;2024-03-08T01:11:06;99112.11;;;-3.94;100.00
77118;BME280;66072;50.238;19.228;2024-03-08T01:13:34;99109.13;;;-3.93;100.00
77118;BME280;66072;50.238;19.228;2024-03-08T01:16:02;99106.77;;;-3.94;100.00
77118;BME280;66072;50.238;19.228;2024-03-08T01:18:29;99110.41;;;-3.96;100.00
77118;BME280;66072;50.238;19.228;2024-03-08T01:20:57;99108.21;;;-3.98;100.00
77118;BME280;66072;50.238;19.228;2024-03-08T01:23:25;99101.98;;;-3.99;100.00
77118;BME280;66072;50.238;19.228;2024-03-08T01:25:53;99099.27;;;-4.00;100.00
77118;BME280;66072;50.238;19.228;2024-03-08T01:28:20;99098.79;;;-4.00;100.00
77118;BME280;66072;50.238;19.228;2024-03-08T01:30:48;99096.16;;;-3.98;100.00
77118;BME280;66072;50.238;19.228;2024-03-08T01:33:16;99088.44;;;-3.99;100.00
77118;BME280;66072;50.238;19.228;2024-03-08T01:35:44;99090.77;;;-4.00;100.00
77118;BME280;66072;50.238;19.228;2024-03-08T01:38:11;99085.06;;;-4.01;100.00
77118;BME280;66072;50.238;19.228;2024-03-08T01:40:39;99083.02;;;-4.04;100.00
77118;BME280;66072;50.238;19.228;2024-03-08T01:45:43;99079.43;;;-4.06;100.00
77118;BME280;66072;50.238;19.228;2024-03-08T01:48:11;99077.07;;;-4.08;100.00
77118;BME280;66072;50.238;19.228;2024-03-08T01:50:39;99078.05;;;-4.10;100.00
77118;BME280;66072;50.238;19.228;2024-03-08T01:53:08;99076.52;;;-4.11;100.00
77118;BME280;66072;50.238;19.228;2024-03-08T01:55:36;99074.02;;;-4.11;100.00
77118;BME280;66072;50.238;19.228;2024-03-08T01:58:05;99071.89;;;-4.08;100.00
77118;BME280;66072;50.238;19.228;2024-03-08T02:00:33;99070.25;;;-4.06;100.00
77118;BME280;66072;50.238;19.228;2024-03-08T02:03:02;99073.45;;;-4.05;100.00
77118;BME280;66072;50.238;19.228;2024-03-08T02:05:30;99075.48;;;-4.05;100.00
77118;BME280;66072;50.238;19.228;2024-03-08T02:07:58;99072.48;;;-4.04;100.00
77118;BME280;66072;50.238;19.228;2024-03-08T02:10:26;99069.78;;;-4.05;100.00
77118;BME280;66072;50.238;19.228;2024-03-08T02:12:53;99070.48;;;-4.04;100.00
77118;BME280;66072;50.238;19.228;2024-03-08T02:15:22;99065.83;;;-4.03;100.00
77118;BME280;66072;50.238;19.228;2024-03-08T02:17:50;99066.69;;;-4.01;100.00
77118;BME280;66072;50.238;19.228;2024-03-08T02:20:18;99064.34;;;-4.01;100.00
77118;BME280;66072;50.238;19.228;2024-03-08T02:22:45;99066.38;;;-4.00;100.00
77118;BME280;66072;50.238;19.228;2024-03-08T02:25:13;99066.21;;;-4.00;100.00
77118;BME280;66072;50.238;19.228;2024-03-08T02:27:41;99064.20;;;-4.00;100.00
77118;BME280;66072;50.238;19.228;2024-03-08T02:30:10;99063.02;;;-4.00;100.00
77118;BME280;66072;50.238;19.228;2024-03-08T02:32:38;99059.66;;;-4.01;100.00
77118;BME280;66072;50.238;19.228;2024-03-08T02:35:05;99059.64;;;-4.03;100.00
77118;BME280;66072;50.238;19.228;2024-03-08T02:37:33;99057.63;;;-4.04;100.00
77118;BME280;66072;50.238;19.228;2024-03-08T02:40:01;99060.44;;;-4.05;100.00
77118;BME280;66072;50.238;19.228;2024-03-08T02:42:29;99064.14;;;-4.04;100.00
77118;BME280;66072;50.238;19.228;2024-03-08T02:44:56;99060.32;;;-4.02;100.00
77118;BME280;66072;50.238;19.228;2024-03-08T02:47:24;99059.05;;;-3.99;100.00
77118;BME280;66072;50.238;19.228;2024-03-08T02:49:54;99061.80;;;-3.96;100.00
77118;BME280;66072;50.238;19.228;2024-03-08T02:52:22;99066.73;;;-3.91;100.00
77118;BME280;66072;50.238;19.228;2024-03-08T02:54:50;99067.55;;;-3.85;100.00
77118;BME280;66072;50.238;19.228;2024-03-08T02:57:17;99065.52;;;-3.77;100.00
77118;BME280;66072;50.238;19.228;2024-03-08T02:59:45;99060.17;;;-3.69;100.00
77118;BME280;66072;50.238;19.228;2024-03-08T03:02:13;99058.52;;;-3.60;100.00
77118;BME280;66072;50.238;19.228;2024-03-08T03:04:41;99059.63;;;-3.54;100.00
77118;BME280;66072;50.238;19.228;2024-03-08T03:07:08;99061.91;;;-3.49;100.00
77118;BME280;66072;50.238;19.228;2024-03-08T03:09:36;99058.14;;;-3.44;100.00
77118;BME280;66072;50.238;19.228;2024-03-08T03:12:04;99062.44;;;-3.38;100.00
77118;BME280;66072;50.238;19.228;2024-03-08T03:14:32;99063.41;;;-3.31;100.00
77118;BME280;66072;50.238;19.228;2024-03-08T03:17:00;99064.05;;;-3.23;100.00
77118;BME280;66072;50.238;19.228;2024-03-08T03:19:27;99063.69;;;-3.15;100.00
77118;BME280;66072;50.238;19.228;2024-03-08T03:21:55;99064.65;;;-3.08;100.00
77118;BME280;66072;50.238;19.228;2024-03-08T03:24:23;99067.29;;;-3.01;100.00
77118;BME280;66072;50.238;19.228;2024-03-08T03:26:50;99066.93;;;-2.93;100.00
77118;BME280;66072;50.238;19.228;2024-03-08T03:29:18;99065.05;;;-2.85;100.00
77118;BME280;66072;50.238;19.228;2024-03-08T03:31:46;99067.16;;;-2.78;100.00
77118;BME280;66072;50.238;19.228;2024-03-08T03:34:13;99066.27;;;-2.72;100.00
77118;BME280;66072;50.238;19.228;2024-03-08T03:36:41;99062.67;;;-2.66;100.00
77118;BME280;66072;50.238;19.228;2024-03-08T03:39:09;99062.77;;;-2.60;100.00
77118;BME280;66072;50.238;19.228;2024-03-08T03:41:37;99064.53;;;-2.55;100.00
77118;BME280;66072;50.238;19.228;2024-03-08T03:44:05;99062.77;;;-2.49;100.00
77118;BME280;66072;50.238;19.228;2024-03-08T03:46:33;99063.20;;;-2.44;100.00
77118;BME280;66072;50.238;19.228;2024-03-08T03:49:01;99063.23;;;-2.40;100.00
77118;BME280;66072;50.238;19.228;2024-03-08T03:51:29;99058.77;;;-2.36;100.00
77118;BME280;66072;50.238;19.228;2024-03-08T03:53:56;99052.45;;;-2.33;100.00
77118;BME280;66072;50.238;19.228;2024-03-08T03:56:25;99051.84;;;-2.29;100.00
77118;BME280;66072;50.238;19.228;2024-03-08T03:58:53;99049.39;;;-2.26;100.00
77118;BME280;66072;50.238;19.228;2024-03-08T04:01:21;99052.13;;;-2.22;100.00
77118;BME280;66072;50.238;19.228;2024-03-08T04:03:48;99049.48;;;-2.18;100.00
77118;BME280;66072;50.238;19.228;2024-03-08T04:06:16;99047.73;;;-2.12;100.00
77118;BME280;66072;50.238;19.228;2024-03-08T04:08:44;99046.95;;;-2.07;100.00
77118;BME280;66072;50.238;19.228;2024-03-08T04:11:11;99048.69;;;-2.03;100.00
77118;BME280;66072;50.238;19.228;2024-03-08T04:13:39;99049.59;;;-1.98;100.00
77118;BME280;66072;50.238;19.228;2024-03-08T04:16:07;99048.48;;;-1.92;100.00
77118;BME280;66072;50.238;19.228;2024-03-08T04:18:35;99048.71;;;-1.87;100.00
77118;BME280;66072;50.238;19.228;2024-03-08T04:21:04;99049.77;;;-1.85;100.00
77118;BME280;66072;50.238;19.228;2024-03-08T04:23:33;99048.97;;;-1.81;100.00
77118;BME280;66072;50.238;19.228;2024-03-08T04:26:02;99045.83;;;-1.77;100.00
77118;BME280;66072;50.238;19.228;2024-03-08T04:28:30;99046.19;;;-1.74;100.00
77118;BME280;66072;50.238;19.228;2024-03-08T04:30:58;99042.89;;;-1.71;100.00
77118;BME280;66072;50.238;19.228;2024-03-08T04:33:26;99043.42;;;-1.69;100.00
77118;BME280;66072;50.238;19.228;2024-03-08T04:35:54;99039.59;;;-1.66;100.00
77118;BME280;66072;50.238;19.228;2024-03-08T04:38:22;99038.61;;;-1.64;100.00
77118;BME280;66072;50.238;19.228;2024-03-08T04:40:50;99037.79;;;-1.62;100.00
77118;BME280;66072;50.238;19.228;2024-03-08T04:43:19;99038.97;;;-1.60;100.00
77118;BME280;66072;50.238;19.228;2024-03-08T04:45:47;99042.70;;;-1.57;100.00
77118;BME280;66072;50.238;19.228;2024-03-08T04:48:14;99045.73;;;-1.56;100.00
77118;BME280;66072;50.238;19.228;2024-03-08T04:50:42;99044.40;;;-1.55;100.00
77118;BME280;66072;50.238;19.228;2024-03-08T04:53:10;99041.58;;;-1.53;100.00
77118;BME280;66072;50.238;19.228;2024-03-08T04:55:38;99043.11;;;-1.52;100.00
77118;BME280;66072;50.238;19.228;2024-03-08T04:58:05;99044.45;;;-1.51;100.00
77118;BME280;66072;50.238;19.228;2024-03-08T05:00:33;99042.95;;;-1.49;100.00
77118;BME280;66072;50.238;19.228;2024-03-08T05:03:01;99045.33;;;-1.48;100.00
77118;BME280;66072;50.238;19.228;2024-03-08T05:05:29;99050.05;;;-1.46;100.00
77118;BME280;66072;50.238;19.228;2024-03-08T05:07:56;99047.88;;;-1.45;100.00
77118;BME280;66072;50.238;19.228;2024-03-08T05:10:24;99042.02;;;-1.43;100.00
77118;BME280;66072;50.238;19.228;2024-03-08T05:12:52;99045.54;;;-1.42;100.00
77118;BME280;66072;50.238;19.228;2024-03-08T05:15:23;99048.77;;;-1.41;100.00
77118;BME280;66072;50.238;19.228;2024-03-08T05:17:51;99050.12;;;-1.40;100.00
77118;BME280;66072;50.238;19.228;2024-03-08T05:20:19;99053.82;;;-1.38;100.00
77118;BME280;66072;50.238;19.228;2024-03-08T05:22:46;99050.98;;;-1.36;100.00
77118;BME280;66072;50.238;19.228;2024-03-08T05:25:14;99052.02;;;-1.34;100.00
77118;BME280;66072;50.238;19.228;2024-03-08T05:27:42;99051.02;;;-1.33;100.00
77118;BME280;66072;50.238;19.228;2024-03-08T05:30:10;99050.02;;;-1.31;100.00
77118;BME280;66072;50.238;19.228;2024-03-08T05:32:38;99051.90;;;-1.29;100.00
77118;BME280;66072;50.238;19.228;2024-03-08T05:35:05;99053.27;;;-1.26;100.00
77118;BME280;66072;50.238;19.228;2024-03-08T05:37:33;99053.64;;;-1.23;100.00
77118;BME280;66072;50.238;19.228;2024-03-08T05:40:01;99056.35;;;-1.21;99.93
77118;BME280;66072;50.238;19.228;2024-03-08T05:42:29;99054.02;;;-1.18;99.85
77118;BME280;66072;50.238;19.228;2024-03-08T05:44:56;99053.39;;;-1.16;99.73
77118;BME280;66072;50.238;19.228;2024-03-08T05:47:24;99053.23;;;-1.13;99.65
77118;BME280;66072;50.238;19.228;2024-03-08T05:49:55;99052.77;;;-1.10;99.48
77118;BME280;66072;50.238;19.228;2024-03-08T05:52:23;99054.30;;;-1.07;99.23
77118;BME280;66072;50.238;19.228;2024-03-08T05:54:51;99054.17;;;-1.03;99.28
77118;BME280;66072;50.238;19.228;2024-03-08T05:57:19;99057.73;;;-0.99;99.09
77118;BME280;66072;50.238;19.228;2024-03-08T05:59:47;99058.11;;;-0.95;99.01
77118;BME280;66072;50.238;19.228;2024-03-08T06:02:14;99055.81;;;-0.90;98.94
77118;BME280;66072;50.238;19.228;2024-03-08T06:04:42;99058.19;;;-0.85;98.86
77118;BME280;66072;50.238;19.228;2024-03-08T06:07:10;99059.56;;;-0.81;98.52
77118;BME280;66072;50.238;19.228;2024-03-08T06:09:38;99059.10;;;-0.78;98.23
77118;BME280;66072;50.238;19.228;2024-03-08T06:12:06;99059.62;;;-0.74;98.00
77118;BME280;66072;50.238;19.228;2024-03-08T06:14:34;99060.84;;;-0.70;97.60
77118;BME280;66072;50.238;19.228;2024-03-08T06:17:01;99057.98;;;-0.68;96.55
77118;BME280;66072;50.238;19.228;2024-03-08T06:19:29;99060.55;;;-0.67;96.03
77118;BME280;66072;50.238;19.228;2024-03-08T06:21:57;99058.70;;;-0.66;95.58
77118;BME280;66072;50.238;19.228;2024-03-08T06:24:25;99060.22;;;-0.64;95.29
77118;BME280;66072;50.238;19.228;2024-03-08T06:26:52;99058.08;;;-0.60;95.50
77118;BME280;66072;50.238;19.228;2024-03-08T06:29:20;99055.08;;;-0.55;95.15
77118;BME280;66072;50.238;19.228;2024-03-08T06:31:48;99057.13;;;-0.51;94.65
77118;BME280;66072;50.238;19.228;2024-03-08T06:34:15;99057.32;;;-0.48;94.34
77118;BME280;66072;50.238;19.228;2024-03-08T06:36:43;99060.52;;;-0.46;93.96
77118;BME280;66072;50.238;19.228;2024-03-08T06:39:11;99061.23;;;-0.42;93.64
77118;BME280;66072;50.238;19.228;2024-03-08T06:41:39;99066.98;;;-0.37;94.16
77118;BME280;66072;50.238;19.228;2024-03-08T06:44:06;99061.95;;;-0.32;94.07
77118;BME280;66072;50.238;19.228;2024-03-08T06:46:34;99063.02;;;-0.26;93.61
77118;BME280;66072;50.238;19.228;2024-03-08T06:49:02;99060.19;;;-0.21;93.24
77118;BME280;66072;50.238;19.228;2024-03-08T06:51:30;99059.72;;;-0.16;93.09
77118;BME280;66072;50.238;19.228;2024-03-08T06:53:57;99057.38;;;-0.13;92.59
77118;BME280;66072;50.238;19.228;2024-03-08T06:56:25;99055.55;;;-0.11;92.50
77118;BME280;66072;50.238;19.228;2024-03-08T06:58:53;99057.77;;;-0.06;92.25
77118;BME280;66072;50.238;19.228;2024-03-08T07:01:21;99060.64;;;-0.03;91.79
77118;BME280;66072;50.238;19.228;2024-03-08T07:03:48;99057.13;;;0.01;91.75
77118;BME280;66072;50.238;19.228;2024-03-08T07:06:16;99048.57;;;0.06;91.85
77118;BME280;66072;50.238;19.228;2024-03-08T07:08:44;99049.10;;;0.11;91.19
77118;BME280;66072;50.238;19.228;2024-03-08T07:11:12;99045.25;;;0.15;90.70
77118;BME280;66072;50.238;19.228;2024-03-08T07:13:40;99049.80;;;0.18;90.91
77118;BME280;66072;50.238;19.228;2024-03-08T07:16:07;99050.33;;;0.21;90.48
77118;BME280;66072;50.238;19.228;2024-03-08T07:18:36;99051.52;;;0.26;90.80
77118;BME280;66072;50.238;19.228;2024-03-08T07:21:04;99051.72;;;0.34;91.09
77118;BME280;66072;50.238;19.228;2024-03-08T07:23:31;99045.20;;;0.42;90.82
77118;BME280;66072;50.238;19.228;2024-03-08T07:25:59;99047.55;;;0.46;90.26
77118;BME280;66072;50.238;19.228;2024-03-08T07:28:27;99050.44;;;0.50;89.90
77118;BME280;66072;50.238;19.228;2024-03-08T07:30:55;99048.94;;;0.54;90.11
77118;BME280;66072;50.238;19.228;2024-03-08T07:33:22;99049.98;;;0.63;90.23
77118;BME280;66072;50.238;19.228;2024-03-08T07:35:50;99053.35;;;0.70;90.22
77118;BME280;66072;50.238;19.228;2024-03-08T07:38:18;99052.20;;;0.76;89.67
77118;BME280;66072;50.238;19.228;2024-03-08T07:40:46;99056.41;;;0.76;88.69
77118;BME280;66072;50.238;19.228;2024-03-08T07:43:14;99060.95;;;0.75;88.24
77118;BME280;66072;50.238;19.228;2024-03-08T07:45:41;99062.45;;;0.73;88.06
77118;BME280;66072;50.238;19.228;2024-03-08T07:48:09;99065.80;;;0.73;88.34
77118;BME280;66072;50.238;19.228;2024-03-08T07:50:39;99068.34;;;0.73;87.68
77118;BME280;66072;50.238;19.228;2024-03-08T07:53:07;99065.84;;;0.75;87.56
77118;BME280;66072;50.238;19.228;2024-03-08T07:55:36;99067.34;;;0.77;86.84
77118;BME280;66072;50.238;19.228;2024-03-08T07:58:04;99069.53;;;0.78;86.99
77118;BME280;66072;50.238;19.228;2024-03-08T08:00:32;99069.72;;;0.82;87.31
77118;BME280;66072;50.238;19.228;2024-03-08T08:02:59;99072.42;;;0.88;87.33
77118;BME280;66072;50.238;19.228;2024-03-08T08:05:27;99070.58;;;0.94;86.84
77118;BME280;66072;50.238;19.228;2024-03-08T08:07:55;99068.58;;;0.99;87.15
77118;BME280;66072;50.238;19.228;2024-03-08T08:10:23;99069.41;;;1.07;86.94
77118;BME280;66072;50.238;19.228;2024-03-08T08:12:51;99065.56;;;1.11;85.37
77118;BME280;66072;50.238;19.228;2024-03-08T08:15:18;99063.04;;;1.13;84.71
77118;BME280;66072;50.238;19.228;2024-03-08T08:17:46;99064.21;;;1.18;85.43
77118;BME280;66072;50.238;19.228;2024-03-08T08:20:14;99063.71;;;1.26;85.22
77118;BME280;66072;50.238;19.228;2024-03-08T08:22:42;99065.91;;;1.34;85.15
77118;BME280;66072;50.238;19.228;2024-03-08T08:25:10;99067.42;;;1.42;84.21
77118;BME280;66072;50.238;19.228;2024-03-08T08:27:38;99069.44;;;1.47;83.73
77118;BME280;66072;50.238;19.228;2024-03-08T08:30:06;99067.41;;;1.58;84.60
77118;BME280;66072;50.238;19.228;2024-03-08T08:32:34;99063.86;;;1.73;83.21
77118;BME280;66072;50.238;19.228;2024-03-08T08:35:03;99064.20;;;1.79;81.85
77118;BME280;66072;50.238;19.228;2024-03-08T08:37:31;99059.96;;;1.86;81.82
77118;BME280;66072;50.238;19.228;2024-03-08T08:39:59;99065.34;;;2.00;82.36
77118;BME280;66072;50.238;19.228;2024-03-08T08:42:27;99063.42;;;2.17;82.36
77118;BME280;66072;50.238;19.228;2024-03-08T08:44:55;99063.05;;;2.27;81.24
77118;BME280;66072;50.238;19.228;2024-03-08T08:47:24;99068.11;;;2.30;80.00
77118;BME280;66072;50.238;19.228;2024-03-08T08:49:52;99066.73;;;2.35;80.37
77118;BME280;66072;50.238;19.228;2024-03-08T08:52:20;99072.12;;;2.42;79.81
77118;BME280;66072;50.238;19.228;2024-03-08T08:54:48;99067.20;;;2.47;79.94
77118;BME280;66072;50.238;19.228;2024-03-08T08:57:17;99063.95;;;2.57;80.20
77118;BME280;66072;50.238;19.228;2024-03-08T08:59:44;99059.34;;;2.68;80.30
77118;BME280;66072;50.238;19.228;2024-03-08T09:02:12;99061.77;;;2.84;80.70
77118;BME280;66072;50.238;19.228;2024-03-08T09:04:44;99057.60;;;3.05;80.15
77118;BME280;66072;50.238;19.228;2024-03-08T09:07:12;99060.19;;;3.21;80.04
77118;BME280;66072;50.238;19.228;2024-03-08T09:09:39;99056.36;;;3.37;78.94
77118;BME280;66072;50.238;19.228;2024-03-08T09:12:07;99051.88;;;3.46;78.54
77118;BME280;66072;50.238;19.228;2024-03-08T09:14:35;99052.63;;;3.56;78.03
77118;BME280;66072;50.238;19.228;2024-03-08T09:17:03;99051.89;;;3.63;77.63
77118;BME280;66072;50.238;19.228;2024-03-08T09:19:30;99051.95;;;3.74;77.48
77118;BME280;66072;50.238;19.228;2024-03-08T09:21:58;99053.73;;;3.84;76.95
77118;BME280;66072;50.238;19.228;2024-03-08T09:24:26;99052.25;;;3.95;77.02
77118;BME280;66072;50.238;19.228;2024-03-08T09:26:54;99053.34;;;4.04;75.67
77118;BME280;66072;50.238;19.228;2024-03-08T09:29:21;99047.13;;;4.00;75.75
77118;BME280;66072;50.238;19.228;2024-03-08T09:31:49;99046.98;;;3.99;75.61
77118;BME280;66072;50.238;19.228;2024-03-08T09:34:17;99048.90;;;3.92;74.97
77118;BME280;66072;50.238;19.228;2024-03-08T09:36:51;99048.70;;;3.94;75.02
77118;BME280;66072;50.238;19.228;2024-03-08T09:39:19;99041.72;;;4.30;75.40
77118;BME280;66072;50.238;19.228;2024-03-08T09:41:47;99041.27;;;4.64;73.26
77118;BME280;66072;50.238;19.228;2024-03-08T09:44:17;99036.00;;;4.78;73.17
77118;BME280;66072;50.238;19.228;2024-03-08T09:46:46;99031.73;;;4.93;71.21
77118;BME280;66072;50.238;19.228;2024-03-08T09:49:13;99031.71;;;5.06;72.06
77118;BME280;66072;50.238;19.228;2024-03-08T09:51:41;99034.30;;;5.25;71.06
77118;BME280;66072;50.238;19.228;2024-03-08T09:54:09;99033.50;;;5.53;69.64
77118;BME280;66072;50.238;19.228;2024-03-08T09:56:47;99026.17;;;5.74;67.11
77118;BME280;66072;50.238;19.228;2024-03-08T09:59:16;99024.09;;;5.76;65.73
77118;BME280;66072;50.238;19.228;2024-03-08T10:01:44;99025.76;;;5.69;65.86
77118;BME280;66072;50.238;19.228;2024-03-08T10:04:11;99023.15;;;5.81;66.45
77118;BME280;66072;50.238;19.228;2024-03-08T10:06:40;99019.60;;;6.18;66.98
77118;BME280;66072;50.238;19.228;2024-03-08T10:09:07;99016.52;;;6.68;66.53
77118;BME280;66072;50.238;19.228;2024-03-08T10:11:35;99014.97;;;7.21;66.43
77118;BME280;66072;50.238;19.228;2024-03-08T10:14:04;99017.58;;;7.73;64.53
77118;BME280;66072;50.238;19.228;2024-03-08T10:16:32;99017.60;;;8.17;63.49
77118;BME280;66072;50.238;19.228;2024-03-08T10:19:00;99017.66;;;8.62;63.20
77118;BME280;66072;50.238;19.228;2024-03-08T10:21:28;99019.11;;;9.05;60.19
77118;BME280;66072;50.238;19.228;2024-03-08T10:23:56;99020.80;;;9.16;57.91
77118;BME280;66072;50.238;19.228;2024-03-08T10:26:24;99016.98;;;9.29;59.34
77118;BME280;66072;50.238;19.228;2024-03-08T10:28:52;99021.36;;;9.61;57.45
77118;BME280;66072;50.238;19.228;2024-03-08T10:31:20;99015.55;;;9.87;56.83
77118;BME280;66072;50.238;19.228;2024-03-08T10:33:48;99014.59;;;10.04;53.81
77118;BME280;66072;50.238;19.228;2024-03-08T10:36:16;99008.73;;;10.20;54.15
77118;BME280;66072;50.238;19.228;2024-03-08T10:38:44;99008.18;;;10.45;53.34
77118;BME280;66072;50.238;19.228;2024-03-08T10:41:11;99005.92;;;10.64;52.46
77118;BME280;66072;50.238;19.228;2024-03-08T10:46:35;98996.20;;;11.15;50.71
77118;BME280;66072;50.238;19.228;2024-03-08T10:49:14;98994.13;;;11.16;50.04
77118;BME280;66072;50.238;19.228;2024-03-08T10:51:44;98996.08;;;11.23;50.27
77118;BME280;66072;50.238;19.228;2024-03-08T10:54:13;98989.22;;;11.56;51.64
77118;BME280;66072;50.238;19.228;2024-03-08T10:56:41;98990.04;;;12.02;50.63
77118;BME280;66072;50.238;19.228;2024-03-08T10:59:10;98986.44;;;12.40;47.95
77118;BME280;66072;50.238;19.228;2024-03-08T11:01:38;98983.08;;;12.53;46.30
77118;BME280;66072;50.238;19.228;2024-03-08T11:04:06;98980.67;;;12.38;45.47
77118;BME280;66072;50.238;19.228;2024-03-08T11:12:19;98974.14;;;13.19;45.24
77118;BME280;66072;50.238;19.228;2024-03-08T11:14:49;98972.30;;;13.53;44.82
77118;BME280;66072;50.238;19.228;2024-03-08T11:19:49;98972.22;;;13.88;43.97
77118;BME280;66072;50.238;19.228;2024-03-08T11:22:27;98966.75;;;14.14;43.53
77118;BME280;66072;50.238;19.228;2024-03-08T11:24:58;98961.05;;;14.46;41.67
77118;BME280;66072;50.238;19.228;2024-03-08T11:27:32;98958.00;;;14.52;41.11
77118;BME280;66072;50.238;19.228;2024-03-08T11:30:02;98958.98;;;14.75;40.59
77118;BME280;66072;50.238;19.228;2024-03-08T11:32:30;98953.89;;;15.04;41.30
77118;BME280;66072;50.238;19.228;2024-03-08T11:34:59;98952.09;;;15.47;41.37
77118;BME280;66072;50.238;19.228;2024-03-08T11:37:27;98947.20;;;15.86;38.98
77118;BME280;66072;50.238;19.228;2024-03-08T11:39:55;98946.29;;;16.07;37.97
77118;BME280;66072;50.238;19.228;2024-03-08T11:42:23;98947.27;;;16.33;38.04
77118;BME280;66072;50.238;19.228;2024-03-08T11:44:51;98945.30;;;16.59;37.53
77118;BME280;66072;50.238;19.228;2024-03-08T11:47:19;98943.30;;;16.82;37.01
77118;BME280;66072;50.238;19.228;2024-03-08T11:49:47;98943.54;;;17.03;35.81
77118;BME280;66072;50.238;19.228;2024-03-08T11:52:16;98948.40;;;17.15;35.66
77118;BME280;66072;50.238;19.228;2024-03-08T11:54:52;98942.38;;;17.51;37.18
77118;BME280;66072;50.238;19.228;2024-03-08T11:57:23;98934.86;;;17.94;35.06
77118;BME280;66072;50.238;19.228;2024-03-08T11:59:55;98934.23;;;18.30;35.02
77118;BME280;66072;50.238;19.228;2024-03-08T12:02:25;98931.08;;;18.59;33.69
77118;BME280;66072;50.238;19.228;2024-03-08T12:04:57;98928.09;;;18.82;33.84
77118;BME280;66072;50.238;19.228;2024-03-08T12:07:25;98929.45;;;19.18;33.13
77118;BME280;66072;50.238;19.228;2024-03-08T12:10:19;98923.45;;;19.38;33.11
77118;BME280;66072;50.238;19.228;2024-03-08T12:12:49;98918.77;;;19.83;32.24
77118;BME280;66072;50.238;19.228;2024-03-08T12:15:22;98916.17;;;20.08;31.08
77118;BME280;66072;50.238;19.228;2024-03-08T12:17:52;98911.20;;;20.05;29.80
77118;BME280;66072;50.238;19.228;2024-03-08T12:20:28;98907.30;;;19.88;30.13
77118;BME280;66072;50.238;19.228;2024-03-08T12:22:57;98911.71;;;20.13;31.21
77118;BME280;66072;50.238;19.228;2024-03-08T12:25:32;98907.59;;;20.37;29.14
77118;BME280;66072;50.238;19.228;2024-03-08T12:28:08;98907.00;;;20.25;28.77
77118;BME280;66072;50.238;19.228;2024-03-08T12:30:43;98901.84;;;20.33;28.79
77118;BME280;66072;50.238;19.228;2024-03-08T12:33:14;98897.89;;;20.52;29.87
77118;BME280;66072;50.238;19.228;2024-03-08T12:35:53;98890.95;;;20.76;28.06
77118;BME280;66072;50.238;19.228;2024-03-08T12:38:23;98888.22;;;20.60;28.28
77118;BME280;66072;50.238;19.228;2024-03-08T12:40:55;98886.27;;;20.73;28.07
77118;BME280;66072;50.238;19.228;2024-03-08T12:43:23;98887.60;;;20.89;28.46
77118;BME280;66072;50.238;19.228;2024-03-08T12:45:51;98887.27;;;21.10;28.09
77118;BME280;66072;50.238;19.228;2024-03-08T12:48:19;98882.67;;;21.34;27.73
77118;BME280;66072;50.238;19.228;2024-03-08T12:50:47;98880.40;;;21.71;28.31
77118;BME280;66072;50.238;19.228;2024-03-08T12:53:26;98877.83;;;21.95;26.90
77118;BME280;66072;50.238;19.228;2024-03-08T12:55:54;98882.25;;;22.16;27.68
77118;BME280;66072;50.238;19.228;2024-03-08T12:58:23;98878.27;;;22.63;26.53
77118;BME280;66072;50.238;19.228;2024-03-08T13:00:52;98877.82;;;22.93;26.82
77118;BME280;66072;50.238;19.228;2024-03-08T13:03:23;98870.58;;;23.36;26.12
77118;BME280;66072;50.238;19.228;2024-03-08T13:05:53;98861.16;;;23.70;25.10
77118;BME280;66072;50.238;19.228;2024-03-08T13:08:22;98859.23;;;23.71;24.24